Time;durP1;ratioP1;P1;durP2;ratioP2;P2;SDS_P1;SDS_P2;PMS_P1;PMS_P2;Temp;Humidity;BMP_temperature;BMP_pressure;BME280_temperature;BME280_humidity;BME280_pressure;Samples;Min_cycle;Max_cycle;Signal;HPM_P1;HPM_P2
2022/05/09 00:01:40;;;;;;;12.00;3.90;;;;;;;10.39;77.14;100279.66;5012532;28;20117;-58
2022/05/09 00:04:06;;;;;;;9.30;3.25;;;;;;;10.48;77.36;100277.53;5003164;28;20108;-58
2022/05/09 00:06:31;;;;;;;10.98;4.30;;;;;;;10.42;77.69;100284.56;5005344;28;20026;-59
2022/05/09 00:08:58;;;;;;;6.70;3.58;;;;;;;10.33;78.28;100275.13;5005537;28;20084;-58
2022/05/09 00:11:23;;;;;;;7.25;3.20;;;;;;;10.15;78.69;100284.69;5011878;28;20053;-58
2022/05/09 00:13:49;;;;;;;10.98;4.13;;;;;;;10.01;79.55;100279.59;5012676;28;20441;-58
2022/05/09 00:16:14;;;;;;;6.75;3.38;;;;;;;9.87;80.65;100279.66;5014794;28;20057;-58
2022/05/09 00:18:40;;;;;;;8.48;3.70;;;;;;;9.90;80.64;100273.06;5011523;28;20041;-58
2022/05/09 00:21:05;;;;;;;7.50;3.55;;;;;;;10.02;79.47;100278.56;5017116;28;20343;-58
2022/05/09 00:23:31;;;;;;;10.73;3.65;;;;;;;9.99;79.28;100269.09;5009671;28;20084;-58
2022/05/09 00:25:57;;;;;;;8.68;3.55;;;;;;;9.99;79.84;100269.09;5009575;28;20108;-58
2022/05/09 00:28:23;;;;;;;8.38;3.53;;;;;;;9.90;80.83;100276.53;5020068;28;20380;-58
2022/05/09 00:30:49;;;;;;;6.68;3.55;;;;;;;9.89;80.82;100268.75;5014461;28;20033;-58
2022/05/09 00:33:14;;;;;;;7.57;3.90;;;;;;;9.88;79.92;100272.44;5020537;28;20547;-58
2022/05/09 00:35:44;;;;;;;9.48;3.63;;;;;;;9.73;79.85;100278.06;5016787;28;20465;-58
2022/05/09 00:38:10;;;;;;;8.70;3.75;;;;;;;9.89;80.09;100272.25;5009156;28;20456;-58
2022/05/09 00:40:35;;;;;;;9.48;3.83;;;;;;;9.86;78.92;100274.50;5006540;28;20038;-58
2022/05/09 00:43:02;;;;;;;7.75;3.80;;;;;;;9.78;82.23;100264.03;5010172;28;20044;-59
2022/05/09 00:45:28;;;;;;;7.32;4.00;;;;;;;9.91;81.93;100277.41;5008941;28;20506;-59
2022/05/09 00:47:53;;;;;;;6.70;3.83;;;;;;;9.67;80.58;100282.41;5014772;28;20151;-58
2022/05/09 00:50:29;;;;;;;7.55;3.47;;;;;;;9.96;78.79;100272.22;5012042;28;20030;-59
2022/05/09 00:52:55;;;;;;;7.55;3.75;;;;;;;9.87;79.82;100268.13;4997729;28;20026;-58
2022/05/09 00:55:25;;;;;;;7.80;3.80;;;;;;;9.76;79.56;100266.94;5013206;28;20033;-58
2022/05/09 00:58:03;;;;;;;11.30;3.90;;;;;;;9.68;79.32;100265.31;5007659;28;20337;-58
2022/05/09 01:00:29;;;;;;;8.65;4.03;;;;;;;9.74;81.01;100262.84;5017942;28;20541;-58
2022/05/09 01:03:04;;;;;;;14.35;3.90;;;;;;;9.73;80.50;100264.66;5014919;28;20037;-58
2022/05/09 01:05:30;;;;;;;12.23;4.22;;;;;;;9.86;80.48;100264.63;4997527;28;20026;-59
2022/05/09 01:07:56;;;;;;;13.25;3.78;;;;;;;9.74;79.56;100263.66;5007510;28;20025;-59
2022/05/09 01:10:24;;;;;;;11.88;4.28;;;;;;;9.92;82.15;100262.97;5008635;28;20422;-58
2022/05/09 01:12:49;;;;;;;18.20;4.75;;;;;;;9.53;81.17;100264.72;4998140;28;20056;-59
2022/05/09 01:15:16;;;;;;;7.82;4.00;;;;;;;9.46;80.82;100262.09;4976865;28;20497;-58
2022/05/09 01:17:41;;;;;;;9.05;3.75;;;;;;;9.43;80.38;100267.03;4991156;28;20045;-58
2022/05/09 01:20:09;;;;;;;9.00;3.80;;;;;;;9.53;81.43;100266.59;4996375;28;20030;-59
2022/05/09 01:22:36;;;;;;;9.13;3.80;;;;;;;9.62;82.02;100266.16;5008232;28;20038;-58
2022/05/09 01:25:04;;;;;;;11.55;4.55;;;;;;;9.53;79.93;100264.72;5011065;28;20022;-58
2022/05/09 01:27:30;;;;;;;6.68;3.72;;;;;;;9.46;80.73;100259.41;5008956;28;20033;-58
2022/05/09 01:30:09;;;;;;;10.55;4.30;;;;;;;9.50;80.32;100263.28;5005537;28;20271;-58
2022/05/09 01:32:44;;;;;;;11.32;4.00;;;;;;;9.40;80.26;100262.09;4999623;28;20116;-59
2022/05/09 01:35:24;;;;;;;9.73;4.10;;;;;;;9.45;80.85;100252.41;4981455;28;20025;-58
2022/05/09 01:37:53;;;;;;;10.95;3.95;;;;;;;9.39;80.58;100255.13;5003211;28;20037;-59
2022/05/09 01:40:19;;;;;;;11.50;4.32;;;;;;;9.33;81.98;100258.59;4999674;28;20534;-59
2022/05/09 01:42:45;;;;;;;10.20;4.00;;;;;;;9.24;82.04;100250.00;5019002;28;20025;-58
2022/05/09 01:45:11;;;;;;;12.95;4.03;;;;;;;9.24;85.57;100250.81;5001086;28;20041;-58
2022/05/09 01:50:23;;;;;;;10.35;4.20;;;;;;;9.05;83.00;100257.00;5013821;28;20088;-59
2022/05/09 01:52:48;;;;;;;10.57;4.03;;;;;;;9.16;82.85;100259.06;5017252;28;20067;-58
2022/05/09 01:55:14;;;;;;;10.10;4.20;;;;;;;9.12;82.96;100257.81;4995693;28;20464;-59
2022/05/09 01:57:40;;;;;;;13.80;4.20;;;;;;;9.11;84.50;100252.66;5017600;28;20073;-59
2022/05/09 02:00:06;;;;;;;10.73;4.18;;;;;;;8.98;84.16;100257.00;5002960;28;20061;-58
2022/05/09 02:02:32;;;;;;;11.60;4.35;;;;;;;8.98;84.09;100256.19;5007701;28;20345;-59
2022/05/09 02:04:57;;;;;;;10.73;4.50;;;;;;;8.84;83.74;100252.72;5007667;28;20036;-59
2022/05/09 02:07:23;;;;;;;7.53;4.28;;;;;;;8.99;82.55;100257.84;5010340;28;20139;-58
2022/05/09 02:09:49;;;;;;;9.43;4.22;;;;;;;8.99;82.61;100253.31;5016108;28;20033;-58
2022/05/09 02:12:15;;;;;;;8.93;4.20;;;;;;;8.96;82.20;100259.09;5008335;28;20030;-58
2022/05/09 02:14:40;;;;;;;11.85;5.82;;;;;;;8.92;82.70;100257.84;5007322;28;20806;-58
2022/05/09 02:17:07;;;;;;;7.88;3.75;;;;;;;8.94;83.53;100257.66;4996288;28;20076;-58
2022/05/09 02:19:32;;;;;;;9.98;3.72;;;;;;;8.88;83.54;100261.94;5013259;28;20026;-58
2022/05/09 02:22:00;;;;;;;7.72;4.40;;;;;;;8.79;83.83;100263.19;5012932;28;20056;-58
2022/05/09 02:24:27;;;;;;;9.38;4.47;;;;;;;8.64;84.61;100263.41;5018208;28;20040;-58
2022/05/09 02:26:57;;;;;;;11.80;4.57;;;;;;;8.62;84.26;100265.44;5006537;28;20326;-58
2022/05/09 02:29:24;;;;;;;8.30;4.57;;;;;;;8.57;84.45;100262.56;5010955;28;20025;-58
2022/05/09 02:31:49;;;;;;;8.27;4.22;;;;;;;8.63;84.70;100259.06;4981761;28;20113;-58
2022/05/09 02:34:15;;;;;;;10.80;4.50;;;;;;;8.59;84.56;100257.84;5007112;28;20346;-58
2022/05/09 02:36:40;;;;;;;12.57;4.38;;;;;;;8.58;84.63;100262.34;5020011;28;20448;-58
2022/05/09 02:39:06;;;;;;;7.93;3.95;;;;;;;8.56;85.41;100259.06;5011865;28;20033;-58
2022/05/09 02:41:33;;;;;;;8.00;4.43;;;;;;;8.65;84.75;100254.34;5008895;28;20049;-58
2022/05/09 02:43:59;;;;;;;12.02;4.63;;;;;;;8.53;84.91;100253.28;4986843;28;20103;-58
2022/05/09 02:46:25;;;;;;;10.63;4.15;;;;;;;8.49;85.37;100260.09;5006603;28;20108;-58
2022/05/09 02:48:50;;;;;;;7.47;4.60;;;;;;;8.46;85.69;100255.13;5010134;28;20030;-58
2022/05/09 02:51:17;;;;;;;10.00;4.50;;;;;;;8.48;86.16;100261.09;5013584;28;20030;-58
2022/05/09 02:53:42;;;;;;;10.13;4.82;;;;;;;8.40;85.97;100260.25;5006435;28;20088;-58
2022/05/09 02:56:08;;;;;;;18.40;4.97;;;;;;;8.50;85.53;100261.72;5011979;28;20018;-57
2022/05/09 02:58:34;;;;;;;9.80;4.47;;;;;;;8.48;85.58;100263.78;4988082;28;20025;-58
2022/05/09 03:01:00;;;;;;;11.05;5.07;;;;;;;8.56;86.26;100264.41;4992930;28;20068;-58
2022/05/09 03:06:10;;;;;;;11.60;4.75;;;;;;;8.49;86.62;100260.91;5011238;28;20037;-58
2022/05/09 03:08:35;;;;;;;9.30;4.75;;;;;;;8.53;86.04;100263.97;5014855;28;20431;-57
2022/05/09 03:11:01;;;;;;;12.35;4.65;;;;;;;8.40;85.68;100262.94;4999391;28;20578;-58
2022/05/09 03:13:26;;;;;;;8.30;4.30;;;;;;;8.39;86.30;100260.47;5006437;28;20024;-58
2022/05/09 03:15:52;;;;;;;7.47;4.40;;;;;;;8.35;86.18;100260.03;5015749;28;20029;-58
2022/05/09 03:18:21;;;;;;;13.48;5.10;;;;;;;8.52;87.32;100257.00;5012840;28;20518;-58
2022/05/09 03:20:47;;;;;;;9.70;4.20;;;;;;;8.58;86.18;100261.53;5014172;28;20499;-60
2022/05/09 03:23:12;;;;;;;10.88;4.72;;;;;;;8.60;85.31;100254.13;5016050;28;20113;-58
2022/05/09 03:25:39;;;;;;;12.02;4.55;;;;;;;8.53;85.93;100250.63;4993236;28;20409;-58
2022/05/09 03:28:06;;;;;;;14.18;4.35;;;;;;;8.55;85.57;100253.91;5005671;28;20356;-58
2022/05/09 03:30:32;;;;;;;10.15;4.07;;;;;;;8.37;85.41;100259.81;4995695;28;20036;-58
2022/05/09 03:32:58;;;;;;;11.55;4.55;;;;;;;8.26;86.36;100255.06;4977506;28;20035;-58
2022/05/09 03:35:23;;;;;;;7.60;4.38;;;;;;;8.24;88.06;100252.63;5014623;28;20036;-58
2022/05/09 03:37:49;;;;;;;15.02;4.55;;;;;;;8.47;90.86;100254.13;5005600;28;20218;-58
2022/05/09 03:40:15;;;;;;;14.15;4.55;;;;;;;8.29;87.46;100252.00;5003623;28;20502;-58
2022/05/09 03:42:40;;;;;;;10.95;4.55;;;;;;;8.32;87.48;100256.94;5010254;28;20113;-58
2022/05/09 03:45:07;;;;;;;12.98;4.00;;;;;;;8.18;86.56;100256.06;5005923;28;20042;-58
2022/05/09 03:47:33;;;;;;;10.75;4.63;;;;;;;8.04;86.97;100260.56;5015277;28;20124;-58
2022/05/09 03:49:58;;;;;;;9.88;4.47;;;;;;;8.01;88.23;100255.59;5000123;28;20224;-57
2022/05/09 03:52:25;;;;;;;12.98;4.72;;;;;;;8.07;91.21;100259.34;4988268;28;20423;-58
2022/05/09 03:54:51;;;;;;;9.75;4.75;;;;;;;7.92;88.14;100257.66;5004954;28;20021;-58
2022/05/09 03:57:17;;;;;;;11.15;4.88;;;;;;;8.07;88.56;100260.16;5018262;28;20037;-58
2022/05/09 03:59:42;;;;;;;17.00;4.75;;;;;;;7.99;88.38;100253.16;5010240;28;20368;-58
2022/05/09 04:02:09;;;;;;;10.45;4.80;;;;;;;8.02;88.72;100261.78;5013788;28;20034;-58
2022/05/09 04:04:35;;;;;;;10.93;4.50;;;;;;;7.97;87.35;100265.06;5009342;28;20021;-57
2022/05/09 04:07:01;;;;;;;10.70;4.22;;;;;;;8.21;86.72;100261.84;4999326;28;20037;-58
2022/05/09 04:09:26;;;;;;;11.00;4.60;;;;;;;8.46;87.05;100268.50;4991772;28;20045;-58
2022/05/09 04:11:52;;;;;;;10.98;4.85;;;;;;;8.99;84.54;100260.53;5008923;28;20441;-58
2022/05/09 04:16:49;;;;;;;11.25;4.15;;;;;;;9.86;80.72;100263.78;5015706;28;20459;-58
2022/05/09 04:17:07;;;;;;;10.52;4.93;;;;;;;10.25;76.95;100272.69;5017742;28;20038;-58
2022/05/09 04:19:33;;;;;;;11.95;5.03;;;;;;;10.54;76.08;100268.63;4998625;28;20096;-59
2022/05/09 04:22:00;;;;;;;12.65;4.10;;;;;;;10.94;73.37;100268.31;5017579;28;20637;-58
2022/05/09 04:24:26;;;;;;;8.32;3.92;;;;;;;11.06;73.24;100268.41;5007976;28;20395;-58
2022/05/09 04:26:51;;;;;;;10.07;4.00;;;;;;;11.39;72.50;100266.25;5016641;28;20111;-58
2022/05/09 04:29:17;;;;;;;10.30;4.13;;;;;;;12.12;70.51;100275.34;5007728;28;20025;-58
2022/05/09 04:31:42;;;;;;;8.95;4.13;;;;;;;12.99;66.35;100274.06;5015095;28;20033;-59
2022/05/09 04:34:08;;;;;;;11.80;4.22;;;;;;;13.62;62.60;100269.84;5003129;28;20034;-59
2022/05/09 04:36:35;;;;;;;7.22;3.95;;;;;;;13.59;62.46;100271.94;5010248;28;20034;-59
2022/05/09 04:39:01;;;;;;;12.52;3.85;;;;;;;13.89;62.47;100281.72;5005360;28;20446;-59
2022/05/09 04:41:27;;;;;;;11.52;3.83;;;;;;;14.16;60.49;100281.19;5013866;28;20057;-59
2022/05/09 04:43:52;;;;;;;6.10;3.33;;;;;;;15.13;57.88;100285.59;5006797;28;20115;-58
2022/05/09 04:46:18;;;;;;;9.63;3.70;;;;;;;15.07;56.84;100281.16;5022035;28;20433;-58
2022/05/09 04:48:44;;;;;;;7.88;4.05;;;;;;;15.13;57.67;100285.59;5019750;28;20168;-57
2022/05/09 04:51:11;;;;;;;7.38;3.40;;;;;;;14.68;59.11;100283.78;5009164;28;20045;-58
2022/05/09 04:53:36;;;;;;;9.18;4.45;;;;;;;15.38;57.17;100285.16;5021570;28;20092;-57
2022/05/09 04:56:03;;;;;;;13.98;3.88;;;;;;;15.83;55.55;100291.47;4992495;28;20783;-58
2022/05/09 04:58:29;;;;;;;12.80;3.80;;;;;;;16.57;53.78;100288.19;4992076;28;20053;-59
2022/05/09 05:00:54;;;;;;;7.57;3.35;;;;;;;16.33;53.76;100287.69;5001251;28;20037;-58
2022/05/09 05:03:20;;;;;;;7.57;3.28;;;;;;;16.32;53.59;100291.47;5010629;28;20029;-58
2022/05/09 05:05:46;;;;;;;8.82;3.20;;;;;;;16.00;55.01;100288.66;5006631;28;20180;-58
2022/05/09 05:08:13;;;;;;;10.25;4.22;;;;;;;16.67;53.05;100288.28;4993444;28;20041;-58
2022/05/09 05:10:39;;;;;;;10.00;4.03;;;;;;;16.25;53.22;100297.09;5008320;28;20037;-58
2022/05/09 05:13:04;;;;;;;7.28;3.55;;;;;;;16.51;54.23;100295.44;5006406;28;20029;-58
2022/05/09 05:15:31;;;;;;;6.13;3.55;;;;;;;17.53;51.22;100298.19;4994378;28;20022;-58
2022/05/09 05:17:56;;;;;;;10.30;3.65;;;;;;;18.83;48.13;100293.75;5006816;28;20029;-58
2022/05/09 05:20:22;;;;;;;6.90;3.40;;;;;;;18.28;48.77;100293.34;5015934;28;20055;-58
2022/05/09 05:22:48;;;;;;;10.20;3.53;;;;;;;19.11;47.14;100291.56;5002143;28;20088;-58
2022/05/09 05:25:16;;;;;;;7.38;3.75;;;;;;;18.31;48.96;100287.38;5007182;28;20026;-58
2022/05/09 05:27:42;;;;;;;7.03;3.33;;;;;;;18.64;48.70;100289.88;5012753;28;20033;-58
2022/05/09 05:30:09;;;;;;;7.88;3.50;;;;;;;19.87;45.47;100298.75;5009684;28;20144;-58
2022/05/09 05:32:36;;;;;;;9.10;3.80;;;;;;;20.23;44.98;100306.75;4987547;28;20059;-58
2022/05/09 05:35:03;;;;;;;8.50;3.20;;;;;;;19.66;46.06;100297.16;5005773;28;20388;-59
2022/05/09 05:37:29;;;;;;;10.05;3.25;;;;;;;20.23;44.90;100298.59;5008700;28;20223;-58
2022/05/09 05:39:57;;;;;;;8.48;3.60;;;;;;;19.71;45.84;100299.91;5006308;28;20091;-58
2022/05/09 05:42:22;;;;;;;10.13;3.45;;;;;;;20.31;44.50;100297.97;5019315;28;20304;-58
2022/05/09 05:44:48;;;;;;;9.90;3.53;;;;;;;19.79;45.32;100302.03;5009289;28;20053;-59
2022/05/09 05:47:15;;;;;;;12.32;3.90;;;;;;;20.65;43.69;100292.63;5013786;28;20069;-57
2022/05/09 05:49:41;;;;;;;9.93;3.78;;;;;;;21.90;41.38;100300.16;5005612;28;20092;-57
2022/05/09 05:52:07;;;;;;;7.47;2.92;;;;;;;21.83;41.12;100304.34;5004755;28;20117;-58
2022/05/09 05:54:39;;;;;;;6.20;2.95;;;;;;;21.10;41.89;100303.44;5019690;28;20030;-57
2022/05/09 05:57:05;;;;;;;8.55;3.55;;;;;;;21.22;41.74;100301.16;5007650;28;20575;-59
2022/05/09 05:59:31;;;;;;;7.53;3.28;;;;;;;22.15;40.37;100295.47;5008925;28;20030;-57
2022/05/09 06:01:59;;;;;;;10.43;3.20;;;;;;;21.94;40.87;100295.75;5003432;28;20434;-59
2022/05/09 06:04:25;;;;;;;8.30;3.40;;;;;;;21.86;41.02;100309.22;4999221;28;20025;-58
2022/05/09 06:06:50;;;;;;;10.60;3.30;;;;;;;22.57;40.06;100308.28;5005807;28;20535;-57
2022/05/09 06:09:16;;;;;;;10.02;3.05;;;;;;;21.39;41.17;100313.56;5014857;28;20084;-58
2022/05/09 06:11:42;;;;;;;7.55;3.30;;;;;;;22.40;40.15;100313.47;5019663;28;20464;-58
2022/05/09 06:14:08;;;;;;;8.63;3.05;;;;;;;21.93;41.90;100304.22;5010083;28;20083;-58
2022/05/09 06:16:34;;;;;;;6.60;3.00;;;;;;;21.70;41.55;100311.31;5006942;28;20029;-58
2022/05/09 06:19:00;;;;;;;6.18;3.00;;;;;;;22.25;41.12;100311.75;4997411;28;20037;-59
2022/05/09 06:21:27;;;;;;;6.88;3.22;;;;;;;21.68;42.66;100313.53;5007047;28;20076;-58
2022/05/09 06:23:53;;;;;;;6.07;2.95;;;;;;;23.01;40.39;100318.03;5011529;28;20113;-58
2022/05/09 06:26:20;;;;;;;10.43;3.05;;;;;;;23.39;38.76;100317.91;5012098;28;20387;-58
2022/05/09 06:28:46;;;;;;;10.40;3.13;;;;;;;23.03;39.67;100326.72;5013432;28;20034;-58
2022/05/09 06:31:12;;;;;;;12.57;3.17;;;;;;;22.73;39.90;100316.25;5009818;28;20048;-58
2022/05/09 06:33:40;;;;;;;16.00;3.55;;;;;;;22.06;41.82;100314.41;5007472;28;20030;-57
2022/05/09 06:36:06;;;;;;;22.43;3.90;;;;;;;21.64;43.07;100318.75;5000096;28;20030;-57
2022/05/09 06:38:33;;;;;;;28.63;4.53;;;;;;;22.98;39.35;100317.78;5004441;28;20103;-58
2022/05/09 06:41:01;;;;;;;30.65;4.35;;;;;;;22.91;39.61;100320.06;5006997;28;20109;-58
2022/05/09 06:43:28;;;;;;;59.15;5.30;;;;;;;22.53;40.64;100318.19;4978146;28;20588;-58
2022/05/09 06:45:53;;;;;;;54.92;5.93;;;;;;;23.74;38.41;100318.38;5017486;28;20049;-58
2022/05/09 06:48:19;;;;;;;34.33;5.00;;;;;;;24.07;36.99;100323.72;5016725;28;20183;-58
2022/05/09 06:50:45;;;;;;;28.88;4.40;;;;;;;23.94;37.73;100328.09;5009434;28;20026;-58
2022/05/09 06:53:11;;;;;;;22.90;4.32;;;;;;;23.26;38.60;100315.94;5006836;28;20042;-58
2022/05/09 06:55:37;;;;;;;22.65;4.50;;;;;;;23.22;38.01;100320.41;5012638;28;20119;-58
2022/05/09 06:58:10;;;;;;;34.83;4.47;;;;;;;23.71;37.55;100323.59;5014786;28;20038;-57
2022/05/09 07:00:36;;;;;;;23.67;3.55;;;;;;;24.97;35.25;100326.63;5012125;28;20022;-58
2022/05/09 07:03:02;;;;;;;26.33;4.32;;;;;;;24.16;36.05;100323.81;4981956;28;20034;-58
2022/05/09 07:05:28;;;;;;;33.38;4.75;;;;;;;24.35;36.47;100315.47;5005150;28;20431;-59
2022/05/09 07:07:54;;;;;;;32.58;4.53;;;;;;;24.72;35.56;100320.66;4995297;28;20160;-58
2022/05/09 07:10:19;;;;;;;27.17;4.70;;;;;;;25.04;35.33;100324.28;4989444;28;20033;-57
2022/05/09 07:12:55;;;;;;;30.05;5.05;;;;;;;24.11;37.04;100321.97;5006055;28;20053;-58
2022/05/09 07:15:22;;;;;;;26.35;4.63;;;;;;;23.82;37.27;100314.91;5006380;28;20026;-58
2022/05/09 07:17:51;;;;;;;28.40;4.45;;;;;;;24.06;37.40;100314.72;4992973;28;20061;-58
2022/05/09 07:20:17;;;;;;;17.48;3.95;;;;;;;25.16;36.04;100319.06;5016444;28;20077;-58
2022/05/09 07:22:43;;;;;;;21.42;3.65;;;;;;;25.04;35.77;100321.53;5007134;28;20091;-57
2022/05/09 07:25:12;;;;;;;13.82;3.40;;;;;;;24.98;36.26;100323.56;5013528;28;20030;-57
2022/05/09 07:27:38;;;;;;;26.00;4.28;;;;;;;24.70;35.99;100317.41;5011139;28;20029;-57
2022/05/09 07:30:04;;;;;;;24.20;5.38;;;;;;;24.01;37.42;100312.09;5005108;28;20061;-57
2022/05/09 07:32:30;;;;;;;19.83;4.05;;;;;;;23.39;38.54;100319.84;5014237;28;20029;-57
2022/05/09 07:34:55;;;;;;;27.25;3.90;;;;;;;23.64;39.23;100319.34;5012202;28;20108;-57
2022/05/09 07:37:21;;;;;;;14.25;3.38;;;;;;;24.01;38.71;100316.72;5021104;28;20034;-57
2022/05/09 07:39:47;;;;;;;22.83;4.53;;;;;;;24.83;37.28;100321.19;5010029;28;20045;-57
2022/05/09 07:42:13;;;;;;;20.13;4.10;;;;;;;24.70;37.57;100320.16;5006500;28;20026;-57
2022/05/09 07:44:38;;;;;;;19.70;4.07;;;;;;;24.98;36.76;100317.28;5006760;28;20128;-57
2022/05/09 07:47:04;;;;;;;21.15;3.78;;;;;;;24.26;38.52;100318.94;5008840;28;20037;-57
2022/05/09 07:49:30;;;;;;;17.75;3.78;;;;;;;24.61;37.71;100321.19;5014449;28;20026;-57
2022/05/09 07:51:55;;;;;;;23.60;4.05;;;;;;;23.93;39.30;100320.19;4992151;28;20045;-57
2022/05/09 07:54:21;;;;;;;16.08;3.80;;;;;;;25.28;37.67;100323.13;5004721;28;20088;-57
2022/05/09 07:56:46;;;;;;;17.80;4.35;;;;;;;23.52;40.51;100323.69;5006191;28;20053;-58
2022/05/09 07:59:12;;;;;;;17.08;4.40;;;;;;;24.07;38.70;100321.78;5006150;28;20037;-58
2022/05/09 08:01:38;;;;;;;18.75;4.28;;;;;;;24.23;38.87;100319.53;5005430;28;20068;-56
2022/05/09 08:04:03;;;;;;;33.10;5.35;;;;;;;23.64;40.62;100318.53;5000097;28;20034;-57
2022/05/09 08:06:29;;;;;;;22.17;4.78;;;;;;;24.02;40.76;100321.91;5008001;28;20034;-57
2022/05/09 08:08:55;;;;;;;20.17;5.13;;;;;;;23.27;41.42;100314.84;5011404;28;20602;-58
2022/05/09 08:11:25;;;;;;;25.92;4.90;;;;;;;23.32;41.58;100317.50;4997807;28;20029;-57
2022/05/09 08:13:50;;;;;;;20.17;4.63;;;;;;;23.67;41.77;100316.00;4990708;28;20022;-57
2022/05/09 08:16:16;;;;;;;27.17;4.47;;;;;;;24.58;40.01;100319.06;5009533;28;20032;-57
2022/05/09 08:18:41;;;;;;;18.38;4.60;;;;;;;24.37;40.67;100319.50;5006481;28;20104;-58
2022/05/09 08:21:09;;;;;;;22.27;4.10;;;;;;;23.85;40.57;100318.97;5006918;28;20120;-58
2022/05/09 08:23:35;;;;;;;24.33;5.07;;;;;;;24.02;40.40;100318.38;5015519;28;20487;-58
2022/05/09 08:26:02;;;;;;;19.65;4.40;;;;;;;23.43;42.03;100318.91;5005261;28;20037;-57
2022/05/09 08:28:28;;;;;;;21.67;4.57;;;;;;;23.67;41.34;100324.22;4987498;28;20061;-58
2022/05/09 08:30:55;;;;;;;19.35;4.22;;;;;;;24.85;39.42;100323.66;5007218;28;20025;-60
2022/05/09 08:33:25;;;;;;;16.75;4.38;;;;;;;24.61;39.29;100315.72;5009637;28;20069;-58
2022/05/09 08:35:51;;;;;;;24.10;4.75;;;;;;;24.91;38.88;100317.75;5004689;28;20030;-58
2022/05/09 08:38:18;;;;;;;22.25;4.53;;;;;;;24.80;39.41;100327.31;5005370;28;20041;-57
2022/05/09 08:41:13;;;;;;;24.85;4.50;;;;;;;22.57;43.07;100326.63;5016039;28;20065;-58
2022/05/09 08:44:10;;;;;;;20.42;4.50;;;;;;;23.99;41.11;100324.44;5004233;28;20096;-58
2022/05/09 08:46:45;;;;;;;31.10;5.25;;;;;;;23.45;41.86;100321.34;4949336;28;20038;-58
2022/05/09 08:49:31;;;;;;;21.85;5.50;;;;;;;23.09;43.24;100318.44;4955077;28;20102;-57
2022/05/09 08:52:07;;;;;;;21.77;4.85;;;;;;;20.55;47.81;100324.56;4955846;28;20069;-57
2022/05/09 08:54:33;;;;;;;22.92;4.35;;;;;;;23.07;44.35;100317.94;4966228;28;20027;-57
2022/05/09 08:57:04;;;;;;;24.35;5.32;;;;;;;23.04;44.96;100311.94;4965551;28;20362;-57
2022/05/09 08:59:40;;;;;;;23.63;5.20;;;;;;;23.74;42.50;100301.94;4957916;28;20027;-57
2022/05/09 09:02:19;;;;;;;22.60;5.00;;;;;;;24.53;41.46;100311.78;4960483;28;20424;-57
2022/05/09 09:04:51;;;;;;;24.40;4.78;;;;;;;23.39;42.14;100311.63;4964423;28;20031;-57
2022/05/09 09:07:29;;;;;;;18.60;4.53;;;;;;;23.39;43.73;100306.16;4963074;28;20035;-58
2022/05/09 09:10:03;;;;;;;22.38;4.95;;;;;;;23.78;42.05;100297.47;4964383;28;20039;-57
2022/05/09 09:12:46;;;;;;;16.88;4.85;;;;;;;22.20;45.66;100302.81;4977207;28;20061;-57
2022/05/09 09:15:27;;;;;;;27.15;5.45;;;;;;;23.28;44.22;100297.31;4958803;28;20505;-58
2022/05/09 09:18:14;;;;;;;21.83;4.75;;;;;;;24.51;41.71;100292.91;4966214;28;20422;-58
2022/05/09 09:21:11;;;;;;;16.27;4.40;;;;;;;25.31;40.86;100292.31;4967188;28;20061;-58
2022/05/09 09:23:48;;;;;;;18.58;4.60;;;;;;;24.86;42.08;100293.19;4947124;28;20039;-57
2022/05/09 09:26:40;;;;;;;32.15;4.40;;;;;;;25.97;40.01;100293.25;4963258;28;20117;-56
2022/05/09 09:29:25;;;;;;;17.25;5.05;;;;;;;23.15;44.11;100300.84;4946554;28;20098;-57
2022/05/09 09:32:10;;;;;;;15.57;4.63;;;;;;;24.04;45.03;100299.72;4964509;28;20114;-57
2022/05/09 09:35:06;;;;;;;13.88;4.15;;;;;;;25.21;42.38;100300.81;4969607;28;20031;-57
2022/05/09 09:37:50;;;;;;;18.35;4.50;;;;;;;25.52;41.18;100293.41;4979495;28;20568;-57
2022/05/09 09:40:16;;;;;;;16.38;4.35;;;;;;;26.04;40.60;100301.81;4965423;28;20031;-58
2022/05/09 09:42:41;;;;;;;20.27;4.55;;;;;;;25.31;41.16;100292.31;4979516;28;20126;-57
2022/05/09 09:45:40;;;;;;;18.88;4.40;;;;;;;24.50;42.50;100291.28;4991187;28;20395;-57
2022/05/09 09:48:18;;;;;;;15.18;5.50;;;;;;;23.78;44.02;100283.78;5004708;28;20092;-57
2022/05/09 09:51:07;;;;;;;25.80;5.00;;;;;;;24.70;43.20;100281.78;4988888;28;20096;-58
2022/05/09 09:53:45;;;;;;;18.25;4.43;;;;;;;25.99;40.77;100282.75;4977556;28;20029;-58
2022/05/09 09:56:20;;;;;;;20.27;4.80;;;;;;;25.66;41.35;100281.50;5002630;28;20092;-57
2022/05/09 09:58:45;;;;;;;15.52;4.65;;;;;;;25.82;40.32;100279.94;5006550;28;20030;-57
2022/05/09 10:01:22;;;;;;;9.25;4.30;;;;;;;25.03;42.76;100280.69;5001177;28;20088;-58
2022/05/09 10:03:48;;;;;;;10.63;4.50;;;;;;;25.23;40.68;100279.38;5005833;28;20104;-57
2022/05/09 10:06:18;;;;;;;7.93;4.15;;;;;;;24.34;42.64;100273.56;5005121;28;20041;-57
2022/05/09 10:08:44;;;;;;;10.80;4.88;;;;;;;24.46;41.79;100273.03;4998348;28;20042;-58
2022/05/09 10:11:19;;;;;;;7.53;4.50;;;;;;;24.59;42.08;100272.19;5006011;28;20034;-57
2022/05/09 10:13:47;;;;;;;8.15;4.18;;;;;;;26.12;39.23;100266.47;4987978;28;20029;-58
2022/05/09 10:16:23;;;;;;;10.10;4.35;;;;;;;24.65;41.21;100265.44;4972006;28;20034;-56
2022/05/09 10:18:50;;;;;;;8.00;4.22;;;;;;;23.91;43.31;100257.50;5008605;28;20030;-56
2022/05/09 10:26:57;;;;;;;17.30;4.63;;;;;;;26.06;41.39;100251.25;5006059;28;20542;-59
2022/05/09 10:29:24;;;;;;;15.95;4.60;;;;;;;26.49;39.27;100247.72;5004597;28;20113;-57
2022/05/09 10:31:57;;;;;;;11.43;4.35;;;;;;;26.21;40.38;100245.31;4987187;28;20396;-57
2022/05/09 10:34:55;;;;;;;27.10;4.78;;;;;;;25.89;41.22;100236.38;5005519;28;20040;-57
2022/05/09 10:37:40;;;;;;;17.20;5.20;;;;;;;24.26;42.70;100234.03;4974313;28;20442;-57
2022/05/09 10:40:18;;;;;;;11.35;4.63;;;;;;;25.80;41.53;100238.25;5003696;28;20499;-58
2022/05/09 10:42:50;;;;;;;12.75;4.43;;;;;;;25.59;41.18;100232.56;4989218;28;20022;-57
2022/05/09 10:45:24;;;;;;;15.85;5.00;;;;;;;24.35;42.11;100233.28;4988800;28;20093;-58
2022/05/09 10:47:54;;;;;;;15.13;4.72;;;;;;;25.41;42.39;100228.97;4981472;28;20037;-58
2022/05/09 10:50:51;;;;;;;15.00;4.47;;;;;;;26.99;39.97;100222.44;5005887;28;20133;-57
2022/05/09 10:53:31;;;;;;;16.35;4.72;;;;;;;26.50;39.63;100219.09;4987267;28;20108;-57
2022/05/09 10:56:21;;;;;;;14.40;4.75;;;;;;;25.50;41.79;100218.81;5004987;28;20037;-57
2022/05/09 10:58:48;;;;;;;;;;;;;;;23.17;42.64;100214.66;5004525;28;20038;-57
2022/05/09 11:01:23;;;;;;;9.20;4.72;;;;;;;23.27;43.78;100205.44;5003872;28;19917;-57
2022/05/09 11:03:49;;;;;;;8.68;4.38;;;;;;;25.27;39.56;100206.31;4982447;28;20433;-57
2022/05/09 11:06:38;;;;;;;11.38;4.28;;;;;;;25.11;41.28;100201.22;4970629;28;20022;-58
2022/05/09 11:09:37;;;;;;;21.33;5.15;;;;;;;24.74;40.95;100197.00;5003323;28;20065;-57
2022/05/09 11:12:15;;;;;;;10.17;4.80;;;;;;;24.88;40.08;100196.91;4945019;28;20114;-57
2022/05/09 11:15:13;;;;;;;8.50;4.57;;;;;;;24.73;41.75;100201.66;4970971;28;20045;-57
2022/05/09 11:17:48;;;;;;;9.13;4.35;;;;;;;24.63;41.62;100190.94;5005008;28;20499;-57
2022/05/09 11:20:39;;;;;;;9.70;4.85;;;;;;;22.42;43.00;100180.16;4986823;28;20062;-57
2022/05/09 11:23:27;;;;;;;11.57;4.63;;;;;;;23.50;42.23;100180.94;4988222;28;20046;-57
2022/05/09 11:26:11;;;;;;;6.55;4.45;;;;;;;24.16;40.39;100181.41;5004262;28;20030;-57
2022/05/09 11:28:52;;;;;;;6.57;4.00;;;;;;;25.32;38.73;100178.72;5003923;28;20471;-58
2022/05/09 11:31:39;;;;;;;7.03;4.18;;;;;;;25.24;39.45;100177.56;5005160;28;20140;-56
2022/05/09 11:34:33;;;;;;;9.35;4.30;;;;;;;23.20;41.65;100177.69;5003044;28;20034;-58
2022/05/09 11:37:34;;;;;;;6.43;4.00;;;;;;;23.74;39.92;100167.84;4989984;28;20150;-58
2022/05/09 11:40:18;;;;;;;5.90;3.90;;;;;;;24.75;39.92;100165.72;4952187;28;20546;-58
2022/05/09 11:45:59;;;;;;;7.32;4.13;;;;;;;22.75;42.75;100166.47;5004701;28;20041;-57
2022/05/09 11:48:49;;;;;;;10.40;4.55;;;;;;;24.16;39.19;100160.28;5001261;28;20519;-56
2022/05/09 11:51:28;;;;;;;;;;;;;;;24.04;39.09;100160.88;4996970;28;20034;-57